createdAt,value
2023-03-17T00:04:25.488Z,4.30
2023-03-17T00:09:28.559Z,4.00
2023-03-17T00:14:32.852Z,4.40
2023-03-17T00:19:37.002Z,4.40
2023-03-17T00:24:39.920Z,4.13
2023-03-17T00:29:44.186Z,3.50
2023-03-17T00:34:47.785Z,3.23
2023-03-17T00:39:52.131Z,3.87
2023-03-17T00:44:56.408Z,3.60
2023-03-17T00:49:59.660Z,3.90
2023-03-17T00:55:02.567Z,3.77
2023-03-17T01:00:17.698Z,3.47
2023-03-17T01:05:21.799Z,3.53
2023-03-17T01:10:27.190Z,3.37
2023-03-17T01:15:32.632Z,4.00
2023-03-17T01:20:35.722Z,2.90
2023-03-17T01:25:40.065Z,3.50
2023-03-17T01:30:45.265Z,2.90
2023-03-17T01:35:48.255Z,4.03
2023-03-17T01:40:52.413Z,3.10
2023-03-17T01:46:29.702Z,2.77
2023-03-17T01:51:37.817Z,2.77
2023-03-17T01:56:44.438Z,2.60
2023-03-17T02:01:51.473Z,2.40
2023-03-17T02:06:58.407Z,3.17
2023-03-17T02:12:03.966Z,2.70
2023-03-17T02:17:09.881Z,2.60
2023-03-17T02:22:14.244Z,3.03
2023-03-17T02:27:24.943Z,2.53
2023-03-17T02:32:29.777Z,2.30
2023-03-17T02:37:34.562Z,2.40
2023-03-17T02:42:39.253Z,2.20
2023-03-17T02:47:43.279Z,2.90
2023-03-17T02:52:47.551Z,2.60
2023-03-17T02:57:50.421Z,3.40
2023-03-17T03:02:53.437Z,3.20
2023-03-17T03:07:57.767Z,3.03
2023-03-17T03:13:01.690Z,2.70
2023-03-17T03:18:04.848Z,3.33
2023-03-17T03:23:09.144Z,2.90
2023-03-17T03:28:12.083Z,3.33
2023-03-17T03:33:16.135Z,2.37
2023-03-17T03:38:20.372Z,2.73
2023-03-17T03:43:24.181Z,3.00
2023-03-17T03:48:27.314Z,3.23
2023-03-17T03:53:31.669Z,3.10
2023-03-17T03:58:34.613Z,3.17
2023-03-17T04:03:38.377Z,2.90
2023-03-17T04:08:42.868Z,4.27
2023-03-17T04:13:45.839Z,3.50
2023-03-17T04:18:48.800Z,3.50
2023-03-17T04:23:53.283Z,3.73
2023-03-17T04:28:56.181Z,3.23
2023-03-17T04:33:59.095Z,4.00
2023-03-17T04:39:03.896Z,3.60
2023-03-17T04:44:07.229Z,3.73
2023-03-17T04:49:10.306Z,3.80
2023-03-17T04:54:14.527Z,3.80
2023-03-17T04:59:17.533Z,3.60
2023-03-17T05:04:31.180Z,4.13
2023-03-17T05:09:36.223Z,3.60
2023-03-17T05:14:39.315Z,3.97
2023-03-17T05:19:42.490Z,6.20
2023-03-17T05:24:47.652Z,5.07
2023-03-17T05:29:50.683Z,5.00
2023-03-17T05:34:53.687Z,14.50
2023-03-17T05:39:58.000Z,5.00
2023-03-17T05:45:00.893Z,5.20
2023-03-17T05:50:04.761Z,6.00
2023-03-17T05:55:10.190Z,6.40
2023-03-17T06:00:16.154Z,5.60
2023-03-17T06:05:19.258Z,5.27
2023-03-17T06:10:24.115Z,5.30
2023-03-17T06:15:27.677Z,5.47
2023-03-17T06:20:31.242Z,4.50
2023-03-17T06:25:37.066Z,5.77
2023-03-17T06:30:40.951Z,5.27
2023-03-17T06:35:43.978Z,4.50
2023-03-17T06:40:48.304Z,4.70
2023-03-17T06:45:51.628Z,4.90
2023-03-17T06:50:54.528Z,4.60
2023-03-17T06:55:59.015Z,5.03
2023-03-17T07:01:02.382Z,4.73
2023-03-17T07:06:05.514Z,5.30
2023-03-17T07:11:09.924Z,5.10
2023-03-17T07:16:15.197Z,4.40
2023-03-17T07:21:18.319Z,4.70
2023-03-17T07:26:22.684Z,4.57
2023-03-17T07:31:25.643Z,4.90
2023-03-17T07:36:28.599Z,5.00
2023-03-17T07:41:32.836Z,3.90
2023-03-17T07:46:35.768Z,4.70
2023-03-17T07:51:38.803Z,4.47
2023-03-17T07:56:43.448Z,5.27
2023-03-17T08:01:46.380Z,4.30
2023-03-17T08:06:49.423Z,4.27
2023-03-17T08:11:53.925Z,4.10
2023-03-17T08:16:57.530Z,4.50
2023-03-17T08:22:01.407Z,4.07
2023-03-17T08:27:05.813Z,4.23
2023-03-17T08:32:09.690Z,3.60
2023-03-17T08:37:12.634Z,3.80
2023-03-17T08:42:17.059Z,3.70
2023-03-17T08:47:19.983Z,3.87
2023-03-17T08:52:23.206Z,4.17
2023-03-17T08:57:28.149Z,4.30
2023-03-17T09:02:31.069Z,4.20
2023-03-17T09:07:34.194Z,3.70
2023-03-17T09:12:39.123Z,3.30
2023-03-17T09:17:43.366Z,4.00
2023-03-17T09:22:47.761Z,3.43
2023-03-17T09:27:52.586Z,4.40
2023-03-17T09:32:55.500Z,3.90
2023-03-17T09:37:58.900Z,3.40
2023-03-17T09:43:11.481Z,4.20
2023-03-17T09:48:51.788Z,4.03
2023-03-17T09:54:01.224Z,3.33
2023-03-17T09:59:08.676Z,3.47
2023-03-17T10:04:12.397Z,3.47
2023-03-17T10:09:26.220Z,4.00
2023-03-17T10:14:44.978Z,3.37
2023-03-17T10:19:57.138Z,3.97
2023-03-17T10:25:05.272Z,3.87
2023-03-17T10:30:16.499Z,2.90
2023-03-17T10:35:19.996Z,3.33
2023-03-17T10:40:25.243Z,3.30
2023-03-17T10:45:31.415Z,3.10
2023-03-17T10:50:36.917Z,3.30
2023-03-17T10:55:44.635Z,3.07
2023-03-17T11:00:57.817Z,3.23
2023-03-17T11:06:04.009Z,3.87
2023-03-17T11:11:10.280Z,3.73
2023-03-17T11:16:23.300Z,3.60
2023-03-17T11:21:31.119Z,3.53
2023-03-17T11:26:53.198Z,2.97
2023-03-17T11:32:21.308Z,3.40
2023-03-17T11:37:37.687Z,3.30
2023-03-17T11:42:52.121Z,3.50
2023-03-17T11:48:18.782Z,3.40
2023-03-17T11:53:41.341Z,3.40
2023-03-17T11:58:46.320Z,3.43
2023-03-17T12:03:55.654Z,3.30
2023-03-17T12:09:07.780Z,4.10
2023-03-17T12:14:25.179Z,3.80
2023-03-17T12:19:37.478Z,4.13
2023-03-17T12:24:47.038Z,3.87
2023-03-17T12:29:56.088Z,3.17
2023-03-17T12:35:05.128Z,3.57
2023-03-17T12:40:14.434Z,3.97
2023-03-17T12:45:44.751Z,3.20
2023-03-17T12:51:36.305Z,3.73
2023-03-17T12:56:46.338Z,3.73
2023-03-17T13:01:58.501Z,4.23
2023-03-17T13:07:07.475Z,4.60
2023-03-17T13:12:44.362Z,4.17
2023-03-17T13:17:47.299Z,4.10
2023-03-17T13:23:15.110Z,4.63
2023-03-17T13:28:25.742Z,4.43
2023-03-17T13:33:32.554Z,5.80
2023-03-17T13:39:30.449Z,5.40
2023-03-17T13:44:45.445Z,5.50
2023-03-17T13:49:51.605Z,5.70
2023-03-17T13:55:02.609Z,6.73
2023-03-17T14:00:24.484Z,6.10
2023-03-17T14:05:31.320Z,5.93
2023-03-17T14:10:35.795Z,6.03
2023-03-17T14:15:48.203Z,5.90
2023-03-17T14:20:54.721Z,6.73
2023-03-17T14:26:00.110Z,6.27
2023-03-17T14:31:06.814Z,6.53
2023-03-17T14:36:14.529Z,6.13
2023-03-17T14:41:19.960Z,6.37
2023-03-17T14:46:26.889Z,6.80
2023-03-17T14:51:33.618Z,6.83
2023-03-17T14:56:39.265Z,7.70
2023-03-17T15:01:47.392Z,6.93
2023-03-17T15:06:52.310Z,7.90
2023-03-17T15:11:57.388Z,7.20
2023-03-17T15:17:04.075Z,7.77
2023-03-17T15:22:23.573Z,7.37
2023-03-17T15:27:27.136Z,7.23
2023-03-17T15:32:32.340Z,7.80
2023-03-17T15:37:36.695Z,6.87
2023-03-17T15:42:40.472Z,6.83
2023-03-17T15:47:47.050Z,7.40
2023-03-17T15:52:49.952Z,7.50
2023-03-17T15:57:55.526Z,8.80
2023-03-17T16:03:02.659Z,8.30
2023-03-17T16:08:05.909Z,8.33
2023-03-17T16:13:09.544Z,9.40
2023-03-17T16:18:18.179Z,9.53
2023-03-17T16:23:24.159Z,10.33
2023-03-17T16:28:28.938Z,8.10
2023-03-17T16:33:40.116Z,9.77
2023-03-17T16:38:43.021Z,8.83
2023-03-17T16:43:51.262Z,9.10
2023-03-17T16:48:56.696Z,10.13
2023-03-17T16:53:59.672Z,9.87
2023-03-17T16:59:03.098Z,9.00
2023-03-17T17:04:11.621Z,9.90
2023-03-17T17:09:14.512Z,9.40
2023-03-17T17:14:17.423Z,8.47
2023-03-17T17:19:21.950Z,9.30
2023-03-17T17:24:24.982Z,9.47
2023-03-17T17:29:29.234Z,9.37
2023-03-17T17:34:34.473Z,9.30
2023-03-17T17:39:37.668Z,8.67
2023-03-17T17:44:40.847Z,8.50
2023-03-17T17:49:45.185Z,8.47
2023-03-17T17:54:48.172Z,9.03
2023-03-17T17:59:51.153Z,11.27
2023-03-17T18:04:55.665Z,8.67
2023-03-17T18:09:58.760Z,8.40
2023-03-17T18:15:01.986Z,8.80
2023-03-17T18:20:10.369Z,8.83
2023-03-17T18:25:15.361Z,7.70
2023-03-17T18:30:23.396Z,8.00
2023-03-17T18:35:28.857Z,9.27
2023-03-17T18:40:31.993Z,8.33
2023-03-17T18:45:35.763Z,8.77
2023-03-17T18:50:40.892Z,8.60
2023-03-17T18:55:44.592Z,7.90
2023-03-17T19:00:47.500Z,8.53
2023-03-17T19:05:51.906Z,8.00
2023-03-17T19:10:54.825Z,9.63
2023-03-17T19:15:58.211Z,7.40
2023-03-17T19:21:03.395Z,7.17
2023-03-17T19:26:07.601Z,6.90
2023-03-17T19:31:11.042Z,7.13
2023-03-17T19:36:15.479Z,6.20
2023-03-17T19:41:18.744Z,6.70
2023-03-17T19:46:21.689Z,5.90
2023-03-17T19:51:27.260Z,5.97
2023-03-17T19:56:30.720Z,7.00
2023-03-17T20:01:33.913Z,6.40
2023-03-17T20:06:38.971Z,6.67
2023-03-17T20:11:42.064Z,6.80
2023-03-17T20:16:45.030Z,6.97
2023-03-17T20:21:49.388Z,6.27
2023-03-17T20:26:54.563Z,6.60
2023-03-17T20:31:57.718Z,6.37
2023-03-17T20:37:02.820Z,5.90
2023-03-17T20:42:10.149Z,6.00
2023-03-17T20:47:14.095Z,5.87
2023-03-17T20:52:20.497Z,6.83
2023-03-17T20:57:23.467Z,7.07
2023-03-17T21:02:26.911Z,6.20
2023-03-17T21:07:31.475Z,5.93
2023-03-17T21:12:34.432Z,6.20
2023-03-17T21:17:38.086Z,6.40
2023-03-17T21:22:42.750Z,6.53
2023-03-17T21:27:46.096Z,6.10
2023-03-17T21:32:49.094Z,5.47
2023-03-17T21:37:53.513Z,5.80
2023-03-17T21:42:56.420Z,6.37
2023-03-17T21:47:59.320Z,5.93
2023-03-17T21:53:03.762Z,6.30
2023-03-17T21:58:06.658Z,6.27
2023-03-17T22:03:10.125Z,5.80
2023-03-17T22:08:14.413Z,5.90
2023-03-17T22:13:17.550Z,6.20
2023-03-17T22:18:20.442Z,6.00
2023-03-17T22:23:25.610Z,6.27
2023-03-17T22:28:29.079Z,5.77
2023-03-17T22:33:32.011Z,5.90
2023-03-17T22:38:36.274Z,5.90
2023-03-17T22:43:40.137Z,5.97
2023-03-17T22:48:43.616Z,12.73
2023-03-17T22:53:48.644Z,7.03
2023-03-17T22:58:51.619Z,8.10
2023-03-17T23:03:55.266Z,6.20
2023-03-17T23:08:59.542Z,6.43
2023-03-17T23:14:02.845Z,5.80
2023-03-17T23:19:06.133Z,5.73
2023-03-17T23:24:10.524Z,5.33
2023-03-17T23:29:13.525Z,5.83
2023-03-17T23:34:16.581Z,5.10
2023-03-17T23:39:22.197Z,5.37
2023-03-17T23:44:25.059Z,5.50
2023-03-17T23:49:27.920Z,5.50
2023-03-17T23:54:33.086Z,6.00
2023-03-17T23:59:36.067Z,5.83
